sensor_id;sensor_type;location;lat;lon;timestamp;temperature;humidity
15922;DHT22;8060;50.948;3.146;2023-06-24T04:07:55;16.70;99.90
15922;DHT22;8060;50.948;3.146;2023-06-24T04:10:23;16.60;99.90
15922;DHT22;8060;50.948;3.146;2023-06-24T04:12:51;16.60;99.90
15922;DHT22;8060;50.948;3.146;2023-06-24T04:15:19;16.70;99.90
15922;DHT22;8060;50.948;3.146;2023-06-24T04:17:47;16.60;99.90
15922;DHT22;8060;50.948;3.146;2023-06-24T04:20:15;16.70;99.90
15922;DHT22;8060;50.948;3.146;2023-06-24T04:22:44;16.70;99.90
15922;DHT22;8060;50.948;3.146;2023-06-24T04:25:13;16.70;99.90
15922;DHT22;8060;50.948;3.146;2023-06-24T04:27:41;16.80;99.90
15922;DHT22;8060;50.948;3.146;2023-06-24T04:30:10;16.80;99.90
15922;DHT22;8060;50.948;3.146;2023-06-24T04:32:39;16.80;99.90
15922;DHT22;8060;50.948;3.146;2023-06-24T04:35:07;16.90;99.90
15922;DHT22;8060;50.948;3.146;2023-06-24T04:37:36;16.90;99.90
15922;DHT22;8060;50.948;3.146;2023-06-24T04:40:05;16.90;99.90
15922;DHT22;8060;50.948;3.146;2023-06-24T04:42:35;16.80;99.90
15922;DHT22;8060;50.948;3.146;2023-06-24T04:45:04;16.80;99.90
15922;DHT22;8060;50.948;3.146;2023-06-24T04:47:32;16.80;99.90
15922;DHT22;8060;50.948;3.146;2023-06-24T04:50:01;16.70;99.90
15922;DHT22;8060;50.948;3.146;2023-06-24T04:52:29;16.80;99.90
15922;DHT22;8060;50.948;3.146;2023-06-24T04:54:57;16.80;99.90
15922;DHT22;8060;50.948;3.146;2023-06-24T04:57:27;16.90;99.90
15922;DHT22;8060;50.948;3.146;2023-06-24T04:59:57;17.00;99.90
15922;DHT22;8060;50.948;3.146;2023-06-24T05:02:26;16.90;99.90
15922;DHT22;8060;50.948;3.146;2023-06-24T05:04:54;16.90;99.90
15922;DHT22;8060;50.948;3.146;2023-06-24T05:07:22;16.90;99.90
15922;DHT22;8060;50.948;3.146;2023-06-24T05:09:50;16.90;99.90
15922;DHT22;8060;50.948;3.146;2023-06-24T05:12:19;17.00;99.90
15922;DHT22;8060;50.948;3.146;2023-06-24T05:14:50;17.00;99.90
15922;DHT22;8060;50.948;3.146;2023-06-24T05:17:21;17.10;99.90
15922;DHT22;8060;50.948;3.146;2023-06-24T05:19:49;17.10;99.90
15922;DHT22;8060;50.948;3.146;2023-06-24T07:37:29;20.70;99.90
15922;DHT22;8060;50.948;3.146;2023-06-24T07:39:57;20.80;99.90
15922;DHT22;8060;50.948;3.146;2023-06-24T07:42:26;21.00;99.90
15922;DHT22;8060;50.948;3.146;2023-06-24T07:44:57;21.10;99.90
15922;DHT22;8060;50.948;3.146;2023-06-24T07:47:25;21.30;99.90
15922;DHT22;8060;50.948;3.146;2023-06-24T07:49:53;21.40;99.90
15922;DHT22;8060;50.948;3.146;2023-06-24T07:52:21;21.50;99.90
15922;DHT22;8060;50.948;3.146;2023-06-24T07:54:51;21.60;99.90
15922;DHT22;8060;50.948;3.146;2023-06-24T07:57:19;21.80;99.90
15922;DHT22;8060;50.948;3.146;2023-06-24T07:59:48;22.00;99.90
15922;DHT22;8060;50.948;3.146;2023-06-24T08:02:16;22.00;99.90
15922;DHT22;8060;50.948;3.146;2023-06-24T08:04:44;22.20;99.90
15922;DHT22;8060;50.948;3.146;2023-06-24T08:07:12;22.30;99.90
15922;DHT22;8060;50.948;3.146;2023-06-24T08:09:42;22.40;99.90
15922;DHT22;8060;50.948;3.146;2023-06-24T08:12:11;22.50;99.90
15922;DHT22;8060;50.948;3.146;2023-06-24T08:14:39;22.60;99.90
15922;DHT22;8060;50.948;3.146;2023-06-24T08:17:07;22.70;99.90
15922;DHT22;8060;50.948;3.146;2023-06-24T08:19:36;22.80;99.90
15922;DHT22;8060;50.948;3.146;2023-06-24T08:22:04;22.90;99.90
15922;DHT22;8060;50.948;3.146;2023-06-24T08:24:32;22.90;99.90
15922;DHT22;8060;50.948;3.146;2023-06-24T08:27:00;22.90;99.90
15922;DHT22;8060;50.948;3.146;2023-06-24T08:29:30;22.90;99.90
15922;DHT22;8060;50.948;3.146;2023-06-24T08:31:58;23.00;99.90
15922;DHT22;8060;50.948;3.146;2023-06-24T08:34:26;23.10;99.90
15922;DHT22;8060;50.948;3.146;2023-06-24T08:36:54;23.20;99.90
15922;DHT22;8060;50.948;3.146;2023-06-24T08:39:22;23.20;99.90
15922;DHT22;8060;50.948;3.146;2023-06-24T08:41:50;23.20;99.90
15922;DHT22;8060;50.948;3.146;2023-06-24T08:44:18;23.40;99.90
15922;DHT22;8060;50.948;3.146;2023-06-24T08:46:48;23.40;99.90
15922;DHT22;8060;50.948;3.146;2023-06-24T08:49:24;23.40;99.90
15922;DHT22;8060;50.948;3.146;2023-06-24T08:52:00;23.60;99.90
15922;DHT22;8060;50.948;3.146;2023-06-24T08:54:29;23.80;99.90
15922;DHT22;8060;50.948;3.146;2023-06-24T08:56:58;24.00;99.90
15922;DHT22;8060;50.948;3.146;2023-06-24T08:59:28;24.20;99.90
15922;DHT22;8060;50.948;3.146;2023-06-24T09:01:57;24.40;99.90
15922;DHT22;8060;50.948;3.146;2023-06-24T09:04:26;24.40;99.90
15922;DHT22;8060;50.948;3.146;2023-06-24T09:06:54;24.60;99.90
15922;DHT22;8060;50.948;3.146;2023-06-24T09:09:23;24.80;99.90
15922;DHT22;8060;50.948;3.146;2023-06-24T09:11:52;24.90;99.90
15922;DHT22;8060;50.948;3.146;2023-06-24T09:14:21;24.90;99.90
15922;DHT22;8060;50.948;3.146;2023-06-24T09:16:53;25.00;99.90
15922;DHT22;8060;50.948;3.146;2023-06-24T09:19:23;25.00;99.90
15922;DHT22;8060;50.948;3.146;2023-06-24T09:21:55;25.10;99.90
15922;DHT22;8060;50.948;3.146;2023-06-24T09:24:27;25.20;99.90
15922;DHT22;8060;50.948;3.146;2023-06-24T09:26:56;25.40;99.90
15922;DHT22;8060;50.948;3.146;2023-06-24T09:29:26;25.40;99.90
15922;DHT22;8060;50.948;3.146;2023-06-24T09:31:56;25.70;99.90
15922;DHT22;8060;50.948;3.146;2023-06-24T09:34:28;25.80;99.90
15922;DHT22;8060;50.948;3.146;2023-06-24T09:36:57;25.70;99.90
15922;DHT22;8060;50.948;3.146;2023-06-24T09:39:27;25.70;99.90
15922;DHT22;8060;50.948;3.146;2023-06-24T09:41:57;25.90;99.90
15922;DHT22;8060;50.948;3.146;2023-06-24T09:44:25;26.20;99.90
15922;DHT22;8060;50.948;3.146;2023-06-24T09:46:54;26.30;99.90
15922;DHT22;8060;50.948;3.146;2023-06-24T09:49:23;26.40;99.90
15922;DHT22;8060;50.948;3.146;2023-06-24T09:51:56;26.40;99.90
15922;DHT22;8060;50.948;3.146;2023-06-24T09:54:26;26.30;99.90
15922;DHT22;8060;50.948;3.146;2023-06-24T09:57:02;26.30;99.90
15922;DHT22;8060;50.948;3.146;2023-06-24T09:59:31;26.10;99.90
15922;DHT22;8060;50.948;3.146;2023-06-24T10:02:02;26.20;99.90
15922;DHT22;8060;50.948;3.146;2023-06-24T10:04:33;26.40;99.90
15922;DHT22;8060;50.948;3.146;2023-06-24T10:07:04;26.50;99.90
15922;DHT22;8060;50.948;3.146;2023-06-24T10:09:32;26.60;99.90
15922;DHT22;8060;50.948;3.146;2023-06-24T10:12:00;26.60;99.90
15922;DHT22;8060;50.948;3.146;2023-06-24T10:14:28;26.80;99.90
15922;DHT22;8060;50.948;3.146;2023-06-24T10:17:01;27.00;99.90
15922;DHT22;8060;50.948;3.146;2023-06-24T10:19:30;27.20;99.90
15922;DHT22;8060;50.948;3.146;2023-06-24T10:22:08;27.50;99.90
15922;DHT22;8060;50.948;3.146;2023-06-24T10:24:38;27.50;99.90
15922;DHT22;8060;50.948;3.146;2023-06-24T10:27:13;27.40;99.90
15922;DHT22;8060;50.948;3.146;2023-06-24T10:29:45;27.40;99.90
15922;DHT22;8060;50.948;3.146;2023-06-24T10:32:13;27.50;99.90
15922;DHT22;8060;50.948;3.146;2023-06-24T10:34:43;27.50;99.90
15922;DHT22;8060;50.948;3.146;2023-06-24T10:37:16;27.60;99.90
15922;DHT22;8060;50.948;3.146;2023-06-24T10:39:48;27.80;99.90
15922;DHT22;8060;50.948;3.146;2023-06-24T10:42:40;27.80;99.90
15922;DHT22;8060;50.948;3.146;2023-06-24T10:45:17;28.10;99.90
15922;DHT22;8060;50.948;3.146;2023-06-24T10:47:47;28.30;99.90
15922;DHT22;8060;50.948;3.146;2023-06-24T10:50:18;28.30;99.90
15922;DHT22;8060;50.948;3.146;2023-06-24T10:52:49;28.40;99.90
15922;DHT22;8060;50.948;3.146;2023-06-24T10:55:22;28.40;99.90
15922;DHT22;8060;50.948;3.146;2023-06-24T10:57:50;28.50;99.90
15922;DHT22;8060;50.948;3.146;2023-06-24T11:00:20;28.70;99.90
15922;DHT22;8060;50.948;3.146;2023-06-24T11:02:49;28.70;99.90
15922;DHT22;8060;50.948;3.146;2023-06-24T11:05:17;28.90;99.90
15922;DHT22;8060;50.948;3.146;2023-06-24T11:07:45;29.00;99.90
15922;DHT22;8060;50.948;3.146;2023-06-24T11:10:15;29.10;99.90
15922;DHT22;8060;50.948;3.146;2023-06-24T11:12:43;29.00;99.90
15922;DHT22;8060;50.948;3.146;2023-06-24T11:15:13;29.40;99.90
15922;DHT22;8060;50.948;3.146;2023-06-24T11:17:42;29.60;99.90
15922;DHT22;8060;50.948;3.146;2023-06-24T11:20:11;29.80;99.90
15922;DHT22;8060;50.948;3.146;2023-06-24T11:22:41;30.10;99.90
15922;DHT22;8060;50.948;3.146;2023-06-24T11:25:16;30.30;99.90
15922;DHT22;8060;50.948;3.146;2023-06-24T11:27:45;30.10;99.90
15922;DHT22;8060;50.948;3.146;2023-06-24T11:30:13;29.90;99.90
15922;DHT22;8060;50.948;3.146;2023-06-24T11:32:44;30.00;99.90
15922;DHT22;8060;50.948;3.146;2023-06-24T11:35:13;29.80;99.90
15922;DHT22;8060;50.948;3.146;2023-06-24T11:37:46;29.70;99.90
15922;DHT22;8060;50.948;3.146;2023-06-24T11:40:17;29.70;99.90
15922;DHT22;8060;50.948;3.146;2023-06-24T11:42:47;29.90;99.90
15922;DHT22;8060;50.948;3.146;2023-06-24T11:45:20;30.30;99.90
15922;DHT22;8060;50.948;3.146;2023-06-24T11:47:51;30.50;99.90
15922;DHT22;8060;50.948;3.146;2023-06-24T11:50:25;30.40;99.90
15922;DHT22;8060;50.948;3.146;2023-06-24T11:52:54;30.30;99.90
15922;DHT22;8060;50.948;3.146;2023-06-24T11:55:25;30.30;99.90
15922;DHT22;8060;50.948;3.146;2023-06-24T11:57:55;30.40;99.90
15922;DHT22;8060;50.948;3.146;2023-06-24T12:00:25;30.40;99.90
15922;DHT22;8060;50.948;3.146;2023-06-24T12:02:55;30.50;99.90
15922;DHT22;8060;50.948;3.146;2023-06-24T12:05:26;30.40;99.90
15922;DHT22;8060;50.948;3.146;2023-06-24T12:07:57;30.00;99.90
15922;DHT22;8060;50.948;3.146;2023-06-24T12:10:27;30.20;99.90
15922;DHT22;8060;50.948;3.146;2023-06-24T12:12:57;30.60;99.90
15922;DHT22;8060;50.948;3.146;2023-06-24T12:15:28;30.80;99.90
15922;DHT22;8060;50.948;3.146;2023-06-24T12:17:56;30.80;99.90
15922;DHT22;8060;50.948;3.146;2023-06-24T12:20:25;30.60;99.90
15922;DHT22;8060;50.948;3.146;2023-06-24T12:22:58;30.50;99.90
15922;DHT22;8060;50.948;3.146;2023-06-24T12:25:27;30.70;99.90
15922;DHT22;8060;50.948;3.146;2023-06-24T12:27:55;30.70;99.90
15922;DHT22;8060;50.948;3.146;2023-06-24T12:30:27;30.90;99.90
15922;DHT22;8060;50.948;3.146;2023-06-24T12:32:55;31.10;99.90
15922;DHT22;8060;50.948;3.146;2023-06-24T12:35:24;30.80;99.90
15922;DHT22;8060;50.948;3.146;2023-06-24T12:37:53;30.80;99.90
15922;DHT22;8060;50.948;3.146;2023-06-24T12:40:21;31.00;99.90
15922;DHT22;8060;50.948;3.146;2023-06-24T12:42:52;31.30;99.90
15922;DHT22;8060;50.948;3.146;2023-06-24T12:45:21;31.40;99.90
15922;DHT22;8060;50.948;3.146;2023-06-24T12:47:49;31.20;99.90
15922;DHT22;8060;50.948;3.146;2023-06-24T12:50:19;31.30;99.90
15922;DHT22;8060;50.948;3.146;2023-06-24T12:52:47;31.60;99.90
15922;DHT22;8060;50.948;3.146;2023-06-24T12:55:15;31.80;99.90
15922;DHT22;8060;50.948;3.146;2023-06-24T12:57:43;31.60;99.90
15922;DHT22;8060;50.948;3.146;2023-06-24T13:00:15;31.60;99.90
15922;DHT22;8060;50.948;3.146;2023-06-24T13:02:43;31.70;99.90
15922;DHT22;8060;50.948;3.146;2023-06-24T13:05:12;31.60;99.90
15922;DHT22;8060;50.948;3.146;2023-06-24T13:07:40;31.60;99.90
15922;DHT22;8060;50.948;3.146;2023-06-24T13:10:09;31.50;99.90
15922;DHT22;8060;50.948;3.146;2023-06-24T13:12:38;31.70;99.90
15922;DHT22;8060;50.948;3.146;2023-06-24T13:15:06;31.60;99.90
15922;DHT22;8060;50.948;3.146;2023-06-24T13:17:37;31.40;99.90
15922;DHT22;8060;50.948;3.146;2023-06-24T13:20:07;31.30;99.90
15922;DHT22;8060;50.948;3.146;2023-06-24T13:22:35;31.30;99.90
15922;DHT22;8060;50.948;3.146;2023-06-24T13:25:04;31.20;99.90
15922;DHT22;8060;50.948;3.146;2023-06-24T13:27:32;31.30;99.90
15922;DHT22;8060;50.948;3.146;2023-06-24T13:30:03;31.40;99.90
15922;DHT22;8060;50.948;3.146;2023-06-24T13:32:31;31.40;99.90
15922;DHT22;8060;50.948;3.146;2023-06-24T13:35:01;31.20;99.90
15922;DHT22;8060;50.948;3.146;2023-06-24T13:37:29;31.30;99.90
15922;DHT22;8060;50.948;3.146;2023-06-24T13:39:57;31.00;99.90
15922;DHT22;8060;50.948;3.146;2023-06-24T13:42:25;31.10;99.90
15922;DHT22;8060;50.948;3.146;2023-06-24T13:44:53;31.10;99.90
15922;DHT22;8060;50.948;3.146;2023-06-24T13:47:21;31.00;99.90
15922;DHT22;8060;50.948;3.146;2023-06-24T13:49:50;30.90;99.90
15922;DHT22;8060;50.948;3.146;2023-06-24T13:52:20;31.00;99.90
15922;DHT22;8060;50.948;3.146;2023-06-24T13:54:48;30.90;99.90
15922;DHT22;8060;50.948;3.146;2023-06-24T13:57:17;31.00;99.90
15922;DHT22;8060;50.948;3.146;2023-06-24T13:59:45;31.10;99.90
15922;DHT22;8060;50.948;3.146;2023-06-24T14:02:13;31.00;99.90
15922;DHT22;8060;50.948;3.146;2023-06-24T14:04:42;30.90;99.90
15922;DHT22;8060;50.948;3.146;2023-06-24T14:07:10;30.90;99.90
15922;DHT22;8060;50.948;3.146;2023-06-24T14:09:40;30.90;99.90
15922;DHT22;8060;50.948;3.146;2023-06-24T14:12:09;31.10;99.90
15922;DHT22;8060;50.948;3.146;2023-06-24T14:14:37;31.20;99.90
15922;DHT22;8060;50.948;3.146;2023-06-24T14:17:06;31.20;99.90
15922;DHT22;8060;50.948;3.146;2023-06-24T14:19:38;31.10;99.90
15922;DHT22;8060;50.948;3.146;2023-06-24T14:22:07;31.30;99.90
15922;DHT22;8060;50.948;3.146;2023-06-24T14:24:36;31.20;99.90
15922;DHT22;8060;50.948;3.146;2023-06-24T14:27:07;31.00;99.90
15922;DHT22;8060;50.948;3.146;2023-06-24T14:29:35;31.10;99.90
15922;DHT22;8060;50.948;3.146;2023-06-24T14:32:04;31.20;99.90
15922;DHT22;8060;50.948;3.146;2023-06-24T14:34:32;31.10;99.90
15922;DHT22;8060;50.948;3.146;2023-06-24T14:37:00;31.10;99.90
15922;DHT22;8060;50.948;3.146;2023-06-24T14:39:29;31.10;99.90
15922;DHT22;8060;50.948;3.146;2023-06-24T14:41:57;31.10;99.90
15922;DHT22;8060;50.948;3.146;2023-06-24T14:44:26;31.00;99.90
15922;DHT22;8060;50.948;3.146;2023-06-24T14:46:54;31.00;99.90
15922;DHT22;8060;50.948;3.146;2023-06-24T14:49:22;31.00;99.90
15922;DHT22;8060;50.948;3.146;2023-06-24T14:51:52;31.10;99.90
15922;DHT22;8060;50.948;3.146;2023-06-24T14:54:20;31.10;99.90
15922;DHT22;8060;50.948;3.146;2023-06-24T14:56:48;31.10;99.90
15922;DHT22;8060;50.948;3.146;2023-06-24T14:59:16;30.90;99.90
15922;DHT22;8060;50.948;3.146;2023-06-24T15:01:46;31.00;99.90
15922;DHT22;8060;50.948;3.146;2023-06-24T15:04:14;31.10;99.90
15922;DHT22;8060;50.948;3.146;2023-06-24T15:06:42;31.20;99.90
15922;DHT22;8060;50.948;3.146;2023-06-24T15:09:10;31.00;98.80
15922;DHT22;8060;50.948;3.146;2023-06-24T15:11:38;31.10;99.90
15922;DHT22;8060;50.948;3.146;2023-06-24T15:14:07;31.10;99.90
15922;DHT22;8060;50.948;3.146;2023-06-24T15:16:35;31.00;99.90
15922;DHT22;8060;50.948;3.146;2023-06-24T15:19:04;30.70;99.90
15922;DHT22;8060;50.948;3.146;2023-06-24T15:21:32;30.70;99.90
15922;DHT22;8060;50.948;3.146;2023-06-24T15:24:03;30.90;99.90
15922;DHT22;8060;50.948;3.146;2023-06-24T15:26:32;30.90;99.90
15922;DHT22;8060;50.948;3.146;2023-06-24T15:29:00;30.70;99.90
15922;DHT22;8060;50.948;3.146;2023-06-24T15:31:28;30.80;99.90
15922;DHT22;8060;50.948;3.146;2023-06-24T15:33:56;30.70;99.90
15922;DHT22;8060;50.948;3.146;2023-06-24T15:36:27;30.60;99.90
15922;DHT22;8060;50.948;3.146;2023-06-24T15:38:56;30.50;99.90
15922;DHT22;8060;50.948;3.146;2023-06-24T15:41:24;30.50;99.90
15922;DHT22;8060;50.948;3.146;2023-06-24T15:43:52;30.60;99.90
15922;DHT22;8060;50.948;3.146;2023-06-24T15:46:20;30.70;99.90
15922;DHT22;8060;50.948;3.146;2023-06-24T15:48:49;30.70;99.90
15922;DHT22;8060;50.948;3.146;2023-06-24T15:51:18;30.70;99.90
15922;DHT22;8060;50.948;3.146;2023-06-24T15:53:47;30.60;99.90
15922;DHT22;8060;50.948;3.146;2023-06-24T15:56:16;30.50;99.90
15922;DHT22;8060;50.948;3.146;2023-06-24T15:58:44;30.50;99.90
15922;DHT22;8060;50.948;3.146;2023-06-24T16:01:14;30.60;99.90
15922;DHT22;8060;50.948;3.146;2023-06-24T16:03:42;30.60;99.90
15922;DHT22;8060;50.948;3.146;2023-06-24T16:06:10;30.50;99.90
15922;DHT22;8060;50.948;3.146;2023-06-24T16:08:39;30.60;99.90
